Almena, Wisconsin
Current Conditions -  °F | °C
As of 11:35 PM on Thursday 30 Oct 2014 (Local Time) from KUBE Reporting Station
Overcast Overcast  
Wind Chill: 18°   Ceiling: 3700
Heat Index: 30°   Visibility: 10mi
Dew Point: 18°   Wind: 17mph
Humidity: 60%   Direction: 340°NNW
Pressure: 30.27"   Gusts: 30mph
Location:  45.42°N, 92.03°W
Report Text: KUBE 310435Z AUTO 34015G26KT 10SM OVC037 M01/M08 A3027 RMK AO2
Loading
Personal Weather Stations






























Interactive Weather Map
Tropical Storm Tracking
New forecast layout! Learn more

10-Day Weather Forecast

Advertisements
Track Severe Weather on mobile